createdAt,value
2023-04-10T00:01:54.083Z,12.18
2023-04-10T00:04:22.416Z,15.27
2023-04-10T00:06:50.012Z,14.27
2023-04-10T00:09:17.452Z,16.00
2023-04-10T00:11:45.698Z,18.05
2023-04-10T00:14:13.236Z,19.50
2023-04-10T00:16:40.958Z,19.08
2023-04-10T00:19:09.033Z,17.15
2023-04-10T00:21:36.583Z,18.13
2023-04-10T00:24:06.260Z,18.48
2023-04-10T00:26:34.854Z,17.05
2023-04-10T00:29:03.479Z,19.52
2023-04-10T00:31:31.933Z,16.42
2023-04-10T00:33:59.499Z,30.50
2023-04-10T00:36:28.167Z,17.48
2023-04-10T00:38:55.769Z,16.70
2023-04-10T00:41:24.305Z,15.95
2023-04-10T00:43:59.090Z,18.75
2023-04-10T00:46:27.779Z,17.05
2023-04-10T00:48:56.516Z,17.58
2023-04-10T00:51:24.186Z,21.13
2023-04-10T00:53:52.904Z,18.67
2023-04-10T00:56:21.070Z,17.45
2023-04-10T00:58:50.988Z,18.13
2023-04-10T01:01:19.267Z,21.55
2023-04-10T01:03:47.339Z,16.08
2023-04-10T01:06:23.985Z,16.00
2023-04-10T01:09:11.028Z,14.40
2023-04-10T01:11:52.939Z,13.98
2023-04-10T01:14:39.110Z,16.60
2023-04-10T01:17:17.451Z,15.07
2023-04-10T01:20:24.222Z,16.65
2023-04-10T01:23:19.630Z,16.35
2023-04-10T01:26:01.521Z,14.93
2023-04-10T01:29:08.778Z,15.45
2023-04-10T01:31:42.340Z,16.05
2023-04-10T01:34:15.879Z,14.85
2023-04-10T01:36:58.064Z,14.65
2023-04-10T01:39:28.352Z,15.70
2023-04-10T01:41:59.900Z,15.10
2023-04-10T01:44:32.067Z,20.48
2023-04-10T01:47:03.266Z,15.13
2023-04-10T01:49:31.894Z,18.23
2023-04-10T01:52:01.263Z,16.98
2023-04-10T01:54:31.222Z,17.25
2023-04-10T01:57:04.271Z,16.15
2023-04-10T01:59:31.985Z,16.55
2023-04-10T02:02:01.519Z,16.75
2023-04-10T02:04:29.278Z,14.75
2023-04-10T02:07:14.314Z,17.95
2023-04-10T02:09:58.823Z,19.75
2023-04-10T02:12:32.358Z,18.25
2023-04-10T02:15:08.798Z,18.48
2023-04-10T02:17:37.733Z,18.90
2023-04-10T02:20:08.036Z,19.02
2023-04-10T02:22:36.739Z,15.82
2023-04-10T02:25:06.457Z,17.83
2023-04-10T02:27:35.717Z,17.80
2023-04-10T02:30:05.232Z,17.40
2023-04-10T02:32:33.881Z,15.05
2023-04-10T02:35:04.492Z,17.02
2023-04-10T02:37:33.089Z,15.48
2023-04-10T02:40:00.886Z,17.27
2023-04-10T02:42:28.466Z,13.73
2023-04-10T02:44:56.991Z,21.77
2023-04-10T02:47:24.799Z,18.38
2023-04-10T02:49:52.833Z,17.27
2023-04-10T02:52:20.315Z,18.95
2023-04-10T02:54:47.845Z,18.67
2023-04-10T02:57:16.531Z,19.42
2023-04-10T02:59:45.199Z,18.75
2023-04-10T03:02:12.712Z,21.05
2023-04-10T03:04:40.199Z,25.52
2023-04-10T03:07:07.660Z,21.15
2023-04-10T03:09:35.421Z,21.17
2023-04-10T03:12:04.287Z,22.05
2023-04-10T03:14:31.751Z,22.65
2023-04-10T03:16:59.212Z,17.08
2023-04-10T03:19:27.055Z,20.33
2023-04-10T03:21:54.503Z,21.25
2023-04-10T03:24:21.953Z,20.65
2023-04-10T03:26:49.404Z,23.35
2023-04-10T03:29:19.261Z,22.00
2023-04-10T03:31:46.884Z,22.58
2023-04-10T03:34:14.397Z,23.95
2023-04-10T03:36:42.138Z,22.58
2023-04-10T03:39:10.274Z,17.10
2023-04-10T03:41:37.766Z,20.25
2023-04-10T03:44:05.647Z,18.90
2023-04-10T03:46:33.143Z,22.92
2023-04-10T03:49:00.799Z,20.15
2023-04-10T03:51:28.399Z,24.08
2023-04-10T03:53:56.216Z,20.88
2023-04-10T03:56:23.946Z,17.83
2023-04-10T03:58:51.440Z,20.55
2023-04-10T04:01:18.964Z,23.65
2023-04-10T04:03:46.644Z,18.65
2023-04-10T04:06:14.261Z,18.42
2023-04-10T04:08:41.872Z,19.50
2023-04-10T04:11:09.412Z,19.20
2023-04-10T04:13:36.840Z,24.17
2023-04-10T04:16:04.793Z,17.50
2023-04-10T04:18:32.271Z,16.92
2023-04-10T04:20:59.778Z,25.05
2023-04-10T04:23:27.237Z,18.92
2023-04-10T04:25:56.463Z,24.58
2023-04-10T04:28:24.034Z,22.20
2023-04-10T04:30:52.027Z,21.60
2023-04-10T04:33:19.646Z,25.10
2023-04-10T04:35:47.227Z,24.17
2023-04-10T04:38:16.956Z,20.75
2023-04-10T04:40:44.440Z,22.23
2023-04-10T04:43:11.940Z,24.75
2023-04-10T04:45:39.485Z,21.35
2023-04-10T04:48:07.093Z,23.77
2023-04-10T04:50:34.832Z,28.92
2023-04-10T04:53:02.380Z,22.33
2023-04-10T04:55:29.951Z,23.70
2023-04-10T04:57:57.569Z,23.63
2023-04-10T05:00:25.056Z,25.73
2023-04-10T05:02:52.796Z,25.38
2023-04-10T05:05:20.482Z,26.13
2023-04-10T05:07:48.033Z,27.77
2023-04-10T05:10:15.866Z,28.52
2023-04-10T05:12:45.661Z,25.88
2023-04-10T05:15:13.118Z,23.05
2023-04-10T05:17:40.696Z,25.98
2023-04-10T05:20:09.062Z,25.58
2023-04-10T05:22:36.608Z,23.25
2023-04-10T05:25:04.360Z,20.73
2023-04-10T05:27:31.806Z,17.75
2023-04-10T05:30:02.317Z,14.05
2023-04-10T05:32:31.041Z,20.98
2023-04-10T05:34:58.710Z,22.40
2023-04-10T05:37:30.191Z,14.32
2023-04-10T05:39:57.671Z,15.95
2023-04-10T05:42:25.320Z,18.33
2023-04-10T05:44:53.302Z,10.68
2023-04-10T05:47:20.847Z,14.93
2023-04-10T05:49:48.356Z,13.15
2023-04-10T05:52:15.875Z,16.95
2023-04-10T05:54:43.289Z,19.40
2023-04-10T05:57:10.920Z,16.55
2023-04-10T05:59:38.377Z,17.23
2023-04-10T06:02:06.487Z,18.92
2023-04-10T06:04:34.230Z,22.70
2023-04-10T06:07:01.922Z,25.30
2023-04-10T06:09:29.448Z,24.27
2023-04-10T06:11:56.981Z,24.10
2023-04-10T06:14:24.540Z,25.25
2023-04-10T06:16:51.996Z,18.33
2023-04-10T06:19:19.441Z,20.77
2023-04-10T06:21:47.182Z,19.38
2023-04-10T06:24:15.947Z,24.33
2023-04-10T06:26:43.404Z,23.33
2023-04-10T06:29:11.030Z,22.75
2023-04-10T06:31:38.608Z,22.38
2023-04-10T06:34:06.386Z,22.30
2023-04-10T06:36:33.974Z,20.58
2023-04-10T06:39:02.928Z,18.60
2023-04-10T06:41:30.617Z,22.75
2023-04-10T06:43:58.861Z,23.10
2023-04-10T06:46:28.323Z,19.25
2023-04-10T06:48:56.434Z,22.95
2023-04-10T06:51:24.230Z,22.20
2023-04-10T06:53:51.740Z,26.42
2023-04-10T06:56:19.161Z,24.83
2023-04-10T06:58:46.574Z,17.77
2023-04-10T07:01:14.224Z,19.10
2023-04-10T07:03:41.867Z,18.85
2023-04-10T07:06:11.491Z,17.88
2023-04-10T07:08:38.915Z,17.35
2023-04-10T07:11:08.997Z,18.02
2023-04-10T07:13:39.008Z,21.38
2023-04-10T07:16:08.718Z,20.90
2023-04-10T07:18:38.713Z,24.35
2023-04-10T07:21:12.757Z,18.77
2023-04-10T07:23:41.093Z,24.00
2023-04-10T07:26:08.841Z,19.90
2023-04-10T07:28:39.141Z,23.20
2023-04-10T07:31:08.213Z,25.65
2023-04-10T07:33:36.645Z,25.92
2023-04-10T07:36:06.159Z,20.55
2023-04-10T07:38:33.944Z,20.02
2023-04-10T07:41:01.563Z,22.40
2023-04-10T07:43:31.313Z,21.73
2023-04-10T07:45:58.795Z,19.27
2023-04-10T07:48:26.501Z,16.58
2023-04-10T07:50:54.085Z,14.20
2023-04-10T07:53:21.552Z,15.27
2023-04-10T07:55:50.491Z,16.02
2023-04-10T07:58:18.016Z,14.70
2023-04-10T08:00:46.043Z,14.65
2023-04-10T08:03:16.202Z,21.38
2023-04-10T08:05:43.832Z,15.52
2023-04-10T08:08:11.358Z,11.73
2023-04-10T08:10:39.630Z,13.15
2023-04-10T08:13:07.330Z,20.00
2023-04-10T08:15:34.949Z,14.68
2023-04-10T08:18:02.473Z,18.15
2023-04-10T08:20:30.168Z,13.65
2023-04-10T08:23:01.014Z,17.17
2023-04-10T08:25:40.459Z,18.73
2023-04-10T08:28:07.995Z,14.23
2023-04-10T08:30:35.525Z,18.10
2023-04-10T08:33:03.174Z,17.92
2023-04-10T08:35:30.746Z,16.10
2023-04-10T08:38:12.552Z,15.15
2023-04-10T08:40:45.224Z,15.13
2023-04-10T08:43:12.783Z,14.27
2023-04-10T08:45:41.891Z,16.35
2023-04-10T08:48:11.503Z,14.70
2023-04-10T08:50:43.794Z,15.73
2023-04-10T08:53:15.826Z,13.30
2023-04-10T08:55:46.062Z,13.52
2023-04-10T08:58:14.207Z,11.32
2023-04-10T09:00:41.752Z,10.75
2023-04-10T09:03:12.188Z,13.70
2023-04-10T09:05:39.928Z,15.07
2023-04-10T09:08:11.309Z,16.00
2023-04-10T09:10:39.541Z,13.25
2023-04-10T09:13:07.171Z,14.35
2023-04-10T09:16:01.531Z,14.85
2023-04-10T09:18:52.441Z,13.88
2023-04-10T09:21:21.921Z,15.15
2023-04-10T09:23:50.072Z,15.07
2023-04-10T09:26:32.659Z,18.17
2023-04-10T09:29:52.838Z,18.27
2023-04-10T09:32:40.890Z,18.63
2023-04-10T09:35:38.157Z,17.60
2023-04-10T09:38:19.538Z,14.45
2023-04-10T09:40:48.394Z,17.60
2023-04-10T09:43:33.781Z,13.23
2023-04-10T09:46:01.438Z,15.25
2023-04-10T09:48:29.033Z,19.92
2023-04-10T09:50:57.984Z,14.50
2023-04-10T09:53:26.153Z,15.48
2023-04-10T09:55:53.796Z,14.95
2023-04-10T09:58:22.746Z,14.25
2023-04-10T10:00:50.785Z,15.80
2023-04-10T10:03:21.554Z,15.43
2023-04-10T10:05:52.942Z,17.80
2023-04-10T10:08:21.829Z,14.15
2023-04-10T10:10:53.364Z,18.50
2023-04-10T10:13:49.166Z,20.27
2023-04-10T10:16:26.417Z,16.17
2023-04-10T10:19:12.767Z,22.05
2023-04-10T10:21:42.476Z,16.55
2023-04-10T10:24:10.477Z,31.77
2023-04-10T10:26:40.450Z,20.23
2023-04-10T10:29:13.656Z,18.10
2023-04-10T10:31:41.564Z,34.50
2023-04-10T10:34:09.905Z,16.23
2023-04-10T10:36:38.289Z,22.15
2023-04-10T10:39:24.474Z,14.13
2023-04-10T10:42:20.795Z,23.15
2023-04-10T10:45:07.172Z,17.10
2023-04-10T10:47:40.605Z,17.33
2023-04-10T10:50:08.392Z,16.00
2023-04-10T10:52:51.360Z,27.75
2023-04-10T10:55:40.130Z,15.45
2023-04-10T10:58:09.296Z,21.13
2023-04-10T11:00:52.122Z,12.25
2023-04-10T11:03:19.958Z,19.17
2023-04-10T11:06:07.753Z,11.57
2023-04-10T11:08:36.276Z,12.73
2023-04-10T11:11:28.140Z,12.88
2023-04-10T11:13:58.377Z,9.38
2023-04-10T11:16:33.302Z,12.93
2023-04-10T11:22:09.085Z,13.65
2023-04-10T11:25:03.608Z,13.02
2023-04-10T11:27:45.750Z,11.88
2023-04-10T11:30:34.685Z,17.53
2023-04-10T11:33:03.203Z,17.73
2023-04-10T11:35:32.101Z,12.55
2023-04-10T11:38:10.549Z,19.20
2023-04-10T11:41:01.947Z,9.07
2023-04-10T11:43:29.868Z,9.30
2023-04-10T11:46:01.838Z,11.88
2023-04-10T11:48:30.169Z,12.90
2023-04-10T11:50:58.040Z,14.95
2023-04-10T11:53:27.003Z,12.25
2023-04-10T11:55:57.868Z,12.10
2023-04-10T11:58:30.818Z,13.10
2023-04-10T12:03:42.061Z,12.48
2023-04-10T12:06:12.566Z,11.88
2023-04-10T12:08:49.786Z,13.40
2023-04-10T12:11:25.789Z,13.27
2023-04-10T12:13:55.120Z,13.05
2023-04-10T12:16:27.581Z,12.50
2023-04-10T12:18:56.237Z,28.10
2023-04-10T12:21:26.626Z,12.75
2023-04-10T12:23:54.064Z,11.85
2023-04-10T12:26:21.807Z,13.65
2023-04-10T12:28:58.147Z,13.95
2023-04-10T12:31:33.909Z,13.55
2023-04-10T12:34:02.614Z,16.48
2023-04-10T12:36:32.346Z,13.52
2023-04-10T12:39:04.243Z,16.23
2023-04-10T12:41:34.493Z,15.70
2023-04-10T12:44:13.070Z,14.82
2023-04-10T12:46:41.907Z,14.80
2023-04-10T12:49:19.102Z,16.30
2023-04-10T12:51:47.699Z,16.10
2023-04-10T12:54:35.989Z,21.40
2023-04-10T12:57:04.510Z,19.73
2023-04-10T12:59:32.190Z,20.33
2023-04-10T13:02:00.041Z,15.70
2023-04-10T13:04:29.307Z,15.85
2023-04-10T13:06:57.318Z,20.30
2023-04-10T13:09:24.798Z,20.27
2023-04-10T13:11:57.924Z,17.08
2023-04-10T13:16:52.694Z,16.48
2023-04-10T13:19:20.429Z,20.33
2023-04-10T13:21:52.917Z,16.50
2023-04-10T13:24:20.497Z,15.80
2023-04-10T13:26:48.025Z,16.80
2023-04-10T13:29:15.673Z,16.65
2023-04-10T13:31:43.176Z,15.07
2023-04-10T13:34:10.688Z,15.95
2023-04-10T13:36:38.819Z,13.38
2023-04-10T13:39:06.504Z,18.20
2023-04-10T13:41:34.328Z,17.77
2023-04-10T13:44:01.892Z,15.38
2023-04-10T13:46:29.552Z,15.70
2023-04-10T13:48:58.018Z,17.52
2023-04-10T13:51:28.462Z,18.00
2023-04-10T13:53:58.335Z,19.27
2023-04-10T13:56:25.943Z,14.88
2023-04-10T13:58:53.569Z,24.42
2023-04-10T14:01:27.357Z,17.48
2023-04-10T14:03:55.035Z,20.77
2023-04-10T14:06:22.730Z,18.13
2023-04-10T14:08:50.369Z,17.48
2023-04-10T14:11:17.835Z,15.68
2023-04-10T14:13:45.256Z,17.10
2023-04-10T14:16:12.973Z,18.95
2023-04-10T14:18:40.946Z,19.27
2023-04-10T14:21:11.552Z,17.33
2023-04-10T14:23:41.071Z,15.05
2023-04-10T14:26:08.674Z,19.33
2023-04-10T14:28:36.377Z,18.88
2023-04-10T14:31:05.599Z,17.13
2023-04-10T14:33:33.077Z,16.98
2023-04-10T14:36:00.775Z,21.85
2023-04-10T14:38:28.258Z,19.52
2023-04-10T14:40:55.969Z,18.80
2023-04-10T14:43:23.434Z,19.83
2023-04-10T14:45:51.106Z,20.58
2023-04-10T14:48:20.075Z,19.70
2023-04-10T14:50:49.639Z,22.40
2023-04-10T14:53:22.529Z,21.50
2023-04-10T14:55:50.129Z,21.15
2023-04-10T14:58:17.760Z,23.30
2023-04-10T15:00:45.496Z,19.77
2023-04-10T15:03:13.317Z,21.02
2023-04-10T15:05:41.048Z,22.58
2023-04-10T15:08:08.682Z,22.88
2023-04-10T15:10:36.176Z,22.95
2023-04-10T15:13:03.728Z,19.40
2023-04-10T15:15:32.951Z,22.23
2023-04-10T15:18:00.478Z,20.13
2023-04-10T15:20:28.019Z,20.85
2023-04-10T15:22:55.497Z,20.23
2023-04-10T15:25:22.951Z,19.33
2023-04-10T15:27:50.440Z,15.23
2023-04-10T15:30:17.964Z,18.92
2023-04-10T15:32:45.554Z,14.93
2023-04-10T15:35:13.117Z,16.17
2023-04-10T15:37:40.704Z,20.88
2023-04-10T15:40:08.834Z,17.50
2023-04-10T15:42:36.900Z,18.48
2023-04-10T15:45:04.796Z,16.52
2023-04-10T15:47:36.144Z,18.67
2023-04-10T15:50:04.851Z,26.30
2023-04-10T15:52:34.118Z,23.02
2023-04-10T15:55:01.722Z,26.73
2023-04-10T15:57:29.236Z,26.30
2023-04-10T15:59:59.077Z,28.55
2023-04-10T16:02:27.215Z,33.10
2023-04-10T16:04:54.917Z,29.30
2023-04-10T16:07:22.436Z,28.98
2023-04-10T16:09:52.541Z,27.25
2023-04-10T16:12:20.191Z,28.63
2023-04-10T16:14:47.631Z,25.42
2023-04-10T16:17:15.400Z,29.70
2023-04-10T16:19:42.940Z,28.83
2023-04-10T16:22:10.704Z,33.05
2023-04-10T16:24:38.252Z,32.97
2023-04-10T16:27:08.391Z,30.85
2023-04-10T16:29:36.365Z,28.40
2023-04-10T16:32:04.108Z,25.48
2023-04-10T16:34:31.570Z,23.23
2023-04-10T16:36:59.066Z,26.75
2023-04-10T16:39:26.610Z,21.38
2023-04-10T16:41:54.332Z,23.35
2023-04-10T16:44:21.857Z,17.92
2023-04-10T16:46:49.446Z,17.60
2023-04-10T16:49:17.049Z,19.02
2023-04-10T16:51:44.844Z,23.27
2023-04-10T16:54:12.395Z,16.38
2023-04-10T16:56:39.934Z,17.45
2023-04-10T16:59:07.481Z,16.52
2023-04-10T17:01:39.984Z,21.40
2023-04-10T17:04:08.412Z,15.57
2023-04-10T17:06:36.587Z,18.90
2023-04-10T17:09:04.192Z,18.38
2023-04-10T17:11:31.988Z,17.65
2023-04-10T17:13:59.523Z,17.02
2023-04-10T17:16:26.991Z,20.70
2023-04-10T17:18:54.708Z,23.60
2023-04-10T17:21:22.393Z,18.45
2023-04-10T17:23:50.261Z,23.70
2023-04-10T17:26:17.872Z,22.83
2023-04-10T17:28:46.790Z,29.67
2023-04-10T17:31:18.045Z,28.10
2023-04-10T17:33:45.729Z,32.33
2023-04-10T17:36:13.924Z,27.13
2023-04-10T17:38:42.785Z,29.25
2023-04-10T17:41:16.284Z,20.48
2023-04-10T17:43:43.811Z,29.08
2023-04-10T17:46:17.677Z,25.08
2023-04-10T17:48:46.172Z,29.17
2023-04-10T17:51:13.714Z,25.13
2023-04-10T17:53:41.511Z,32.38
2023-04-10T17:56:09.111Z,27.45
2023-04-10T17:58:36.606Z,30.52
2023-04-10T18:01:04.189Z,33.08
2023-04-10T18:03:31.785Z,30.83
2023-04-10T18:05:59.978Z,28.63
2023-04-10T18:08:29.761Z,29.10
2023-04-10T18:10:57.379Z,23.85
2023-04-10T18:13:24.995Z,27.65
2023-04-10T18:15:52.633Z,22.35
2023-04-10T18:18:20.068Z,25.20
2023-04-10T18:20:47.840Z,32.65
2023-04-10T18:23:15.374Z,31.60
2023-04-10T18:25:42.831Z,28.90
2023-04-10T18:28:14.994Z,33.47
2023-04-10T18:30:44.233Z,32.08
2023-04-10T18:33:11.886Z,36.42
2023-04-10T18:35:39.924Z,35.03
2023-04-10T18:38:07.504Z,30.30
2023-04-10T18:40:37.041Z,38.38
2023-04-10T18:43:04.628Z,26.58
2023-04-10T18:45:34.479Z,29.17
2023-04-10T18:48:02.710Z,37.65
2023-04-10T18:50:33.961Z,29.75
2023-04-10T18:53:01.552Z,40.60
2023-04-10T18:55:29.016Z,29.38
2023-04-10T18:57:56.564Z,33.20
2023-04-10T19:00:24.256Z,37.00
2023-04-10T19:02:51.882Z,31.52
2023-04-10T19:05:19.521Z,33.97
2023-04-10T19:08:00.571Z,40.75
2023-04-10T19:10:31.070Z,33.08
2023-04-10T19:12:58.652Z,44.53
2023-04-10T19:15:26.196Z,31.90
2023-04-10T19:17:54.769Z,37.60
2023-04-10T19:20:50.809Z,36.58
2023-04-10T19:23:10.507Z,35.70
2023-04-10T19:25:41.875Z,37.40
2023-04-10T19:28:09.416Z,31.45
2023-04-10T19:30:37.074Z,33.42
2023-04-10T19:33:04.651Z,35.20
2023-04-10T19:35:32.179Z,30.05
2023-04-10T19:37:59.669Z,30.70
2023-04-10T19:40:27.210Z,29.20
2023-04-10T19:42:54.686Z,32.67
2023-04-10T19:45:24.018Z,37.70
2023-04-10T19:47:52.197Z,41.65
2023-04-10T19:50:19.974Z,51.25
2023-04-10T19:52:47.646Z,46.67
2023-04-10T19:55:16.956Z,45.45
2023-04-10T19:57:45.791Z,46.50
2023-04-10T20:00:13.759Z,37.65
2023-04-10T20:02:41.690Z,50.05
2023-04-10T20:05:10.088Z,43.20
2023-04-10T20:07:37.588Z,39.72
2023-04-10T20:10:05.488Z,44.83
2023-04-10T20:12:33.478Z,42.15
2023-04-10T20:15:05.007Z,46.03
2023-04-10T20:17:32.612Z,50.10
2023-04-10T20:20:00.169Z,39.17
2023-04-10T20:22:27.836Z,42.20
2023-04-10T20:24:55.295Z,42.50
2023-04-10T20:27:22.814Z,44.33
2023-04-10T20:29:51.001Z,36.22
2023-04-10T20:32:18.470Z,42.47
2023-04-10T20:34:45.978Z,51.70
2023-04-10T20:37:17.547Z,51.65
2023-04-10T20:39:45.020Z,61.85
2023-04-10T20:42:12.523Z,49.75
2023-04-10T20:44:40.088Z,38.88
2023-04-10T20:47:07.839Z,42.75
2023-04-10T20:49:37.699Z,40.40
2023-04-10T20:52:05.904Z,48.33
2023-04-10T20:54:34.042Z,43.03
2023-04-10T20:57:02.057Z,48.05
2023-04-10T20:59:30.303Z,41.60
2023-04-10T21:01:59.432Z,42.38
2023-04-10T21:04:26.985Z,53.92
2023-04-10T21:06:54.491Z,52.33
2023-04-10T21:09:22.006Z,54.42
2023-04-10T21:11:49.646Z,57.15
2023-04-10T21:14:17.118Z,54.15
2023-04-10T21:16:46.116Z,54.33
2023-04-10T21:19:14.175Z,59.75
2023-04-10T21:21:41.853Z,60.88
2023-04-10T21:24:09.337Z,61.10
2023-04-10T21:26:36.887Z,61.30
2023-04-10T21:29:04.363Z,58.90
2023-04-10T21:31:31.916Z,45.75
2023-04-10T21:33:59.452Z,37.90
2023-04-10T21:36:26.891Z,39.10
2023-04-10T21:38:54.405Z,34.90
2023-04-10T21:41:22.215Z,44.13
2023-04-10T21:43:49.679Z,45.33
2023-04-10T21:46:17.222Z,37.90
2023-04-10T21:48:44.756Z,37.92
2023-04-10T21:51:12.286Z,43.10
2023-04-10T21:53:39.771Z,42.05
2023-04-10T21:56:07.618Z,40.42
2023-04-10T21:58:35.150Z,41.80
2023-04-10T22:01:02.756Z,43.67
2023-04-10T22:03:33.422Z,48.95
2023-04-10T22:06:01.499Z,48.17
2023-04-10T22:08:29.126Z,49.55
2023-04-10T22:10:56.678Z,47.28
2023-04-10T22:13:30.831Z,45.15
2023-04-10T22:16:00.277Z,40.92
2023-04-10T22:18:27.734Z,45.72
2023-04-10T22:20:55.491Z,44.60
2023-04-10T22:23:23.129Z,45.58
2023-04-10T22:25:50.920Z,42.53
2023-04-10T22:28:18.518Z,53.63
2023-04-10T22:30:46.133Z,53.15
2023-04-10T22:33:13.691Z,57.85
2023-04-10T22:35:41.201Z,51.50
2023-04-10T22:38:09.401Z,49.53
2023-04-10T22:40:36.971Z,52.28
2023-04-10T22:43:04.493Z,43.88
2023-04-10T22:45:32.031Z,45.10
2023-04-10T22:47:59.602Z,50.10
2023-04-10T22:50:27.279Z,46.25
2023-04-10T22:52:54.743Z,47.90
2023-04-10T22:55:22.343Z,90.03
2023-04-10T22:57:49.839Z,58.38
2023-04-10T23:00:18.742Z,50.53
2023-04-10T23:02:46.486Z,42.38
2023-04-10T23:05:14.030Z,36.83
2023-04-10T23:07:41.488Z,42.38
2023-04-10T23:10:09.445Z,35.78
2023-04-10T23:12:37.936Z,41.88
2023-04-10T23:15:06.597Z,40.55
2023-04-10T23:17:34.080Z,36.20
2023-04-10T23:20:01.601Z,41.13
2023-04-10T23:22:29.813Z,34.47
2023-04-10T23:24:57.864Z,35.40
2023-04-10T23:27:25.447Z,43.35
2023-04-10T23:29:53.006Z,41.72
2023-04-10T23:32:20.433Z,41.05
2023-04-10T23:34:47.895Z,43.50
2023-04-10T23:37:15.527Z,41.75
2023-04-10T23:39:42.983Z,42.15
2023-04-10T23:42:10.534Z,43.30
2023-04-10T23:44:37.973Z,42.47
2023-04-10T23:47:06.487Z,37.33
2023-04-10T23:49:36.734Z,38.08
2023-04-10T23:52:04.245Z,45.47
2023-04-10T23:54:31.731Z,43.42
2023-04-10T23:56:59.946Z,45.35
2023-04-10T23:59:27.420Z,39.03
